sensor_id;sensor_type;location;lat;lon;timestamp;P1;durP1;ratioP1;P2;durP2;ratioP2
50126;SDS011;36024;47.974;16.398;2023-10-13T00:00:58;7.60;;;6.30;;
50126;SDS011;36024;47.974;16.398;2023-10-13T00:03:27;7.70;;;6.13;;
50126;SDS011;36024;47.974;16.398;2023-10-13T00:05:59;7.50;;;6.63;;
50126;SDS011;36024;47.974;16.398;2023-10-13T00:08:30;7.30;;;6.60;;
50126;SDS011;36024;47.974;16.398;2023-10-13T00:11:05;9.00;;;6.47;;
50126;SDS011;36024;47.974;16.398;2023-10-13T00:13:36;7.03;;;6.10;;
50126;SDS011;36024;47.974;16.398;2023-10-13T00:16:25;6.63;;;5.80;;
50126;SDS011;36024;47.974;16.398;2023-10-13T00:18:56;7.40;;;5.90;;
50126;SDS011;36024;47.974;16.398;2023-10-13T00:21:26;8.57;;;6.60;;
50126;SDS011;36024;47.974;16.398;2023-10-13T00:24:03;7.70;;;6.53;;
50126;SDS011;36024;47.974;16.398;2023-10-13T00:26:39;8.53;;;6.57;;
50126;SDS011;36024;47.974;16.398;2023-10-13T00:29:13;7.20;;;6.50;;
50126;SDS011;36024;47.974;16.398;2023-10-13T00:31:42;10.87;;;6.00;;
50126;SDS011;36024;47.974;16.398;2023-10-13T00:34:11;9.63;;;5.90;;
50126;SDS011;36024;47.974;16.398;2023-10-13T00:36:47;7.60;;;5.77;;
50126;SDS011;36024;47.974;16.398;2023-10-13T00:39:33;8.70;;;6.27;;
50126;SDS011;36024;47.974;16.398;2023-10-13T00:42:04;6.80;;;6.10;;
50126;SDS011;36024;47.974;16.398;2023-10-13T00:44:37;6.80;;;6.13;;
50126;SDS011;36024;47.974;16.398;2023-10-13T00:47:14;9.13;;;6.20;;
50126;SDS011;36024;47.974;16.398;2023-10-13T00:50:00;8.20;;;6.30;;
50126;SDS011;36024;47.974;16.398;2023-10-13T00:52:33;9.03;;;6.70;;
50126;SDS011;36024;47.974;16.398;2023-10-13T00:55:04;8.67;;;6.80;;
50126;SDS011;36024;47.974;16.398;2023-10-13T00:57:35;8.47;;;7.10;;
50126;SDS011;36024;47.974;16.398;2023-10-13T01:00:05;8.00;;;6.97;;
50126;SDS011;36024;47.974;16.398;2023-10-13T01:02:48;7.73;;;6.60;;
50126;SDS011;36024;47.974;16.398;2023-10-13T01:05:23;8.10;;;6.50;;
50126;SDS011;36024;47.974;16.398;2023-10-13T01:08:00;8.23;;;6.53;;
50126;SDS011;36024;47.974;16.398;2023-10-13T01:10:28;8.37;;;6.40;;
50126;SDS011;36024;47.974;16.398;2023-10-13T01:13:00;7.80;;;6.40;;
50126;SDS011;36024;47.974;16.398;2023-10-13T01:15:32;8.17;;;6.70;;
50126;SDS011;36024;47.974;16.398;2023-10-13T01:18:07;8.13;;;7.03;;
50126;SDS011;36024;47.974;16.398;2023-10-13T01:20:47;7.77;;;6.10;;
50126;SDS011;36024;47.974;16.398;2023-10-13T01:23:20;7.37;;;6.67;;
50126;SDS011;36024;47.974;16.398;2023-10-13T01:25:56;8.90;;;7.00;;
50126;SDS011;36024;47.974;16.398;2023-10-13T01:28:24;8.97;;;7.07;;
50126;SDS011;36024;47.974;16.398;2023-10-13T01:30:57;7.00;;;6.30;;
50126;SDS011;36024;47.974;16.398;2023-10-13T01:33:27;8.40;;;7.00;;
50126;SDS011;36024;47.974;16.398;2023-10-13T01:35:56;7.60;;;6.87;;
50126;SDS011;36024;47.974;16.398;2023-10-13T01:38:38;7.33;;;6.43;;
50126;SDS011;36024;47.974;16.398;2023-10-13T01:41:09;8.40;;;6.57;;
50126;SDS011;36024;47.974;16.398;2023-10-13T01:43:36;9.53;;;6.60;;
50126;SDS011;36024;47.974;16.398;2023-10-13T01:46:06;9.10;;;6.30;;
50126;SDS011;36024;47.974;16.398;2023-10-13T01:48:39;8.27;;;6.70;;
50126;SDS011;36024;47.974;16.398;2023-10-13T01:51:11;9.07;;;6.67;;
50126;SDS011;36024;47.974;16.398;2023-10-13T01:53:39;8.57;;;6.93;;
50126;SDS011;36024;47.974;16.398;2023-10-13T01:56:12;9.97;;;6.53;;
50126;SDS011;36024;47.974;16.398;2023-10-13T01:58:44;7.73;;;6.27;;
50126;SDS011;36024;47.974;16.398;2023-10-13T02:01:18;7.67;;;6.23;;
50126;SDS011;36024;47.974;16.398;2023-10-13T02:04:06;8.13;;;6.97;;
50126;SDS011;36024;47.974;16.398;2023-10-13T02:06:34;10.30;;;6.50;;
50126;SDS011;36024;47.974;16.398;2023-10-13T02:09:07;8.23;;;6.93;;
50126;SDS011;36024;47.974;16.398;2023-10-13T02:11:53;7.57;;;6.83;;
50126;SDS011;36024;47.974;16.398;2023-10-13T02:14:21;8.07;;;6.77;;
50126;SDS011;36024;47.974;16.398;2023-10-13T02:16:54;7.27;;;6.50;;
50126;SDS011;36024;47.974;16.398;2023-10-13T02:19:40;8.60;;;7.33;;
50126;SDS011;36024;47.974;16.398;2023-10-13T02:22:15;8.57;;;6.60;;
50126;SDS011;36024;47.974;16.398;2023-10-13T02:24:54;7.37;;;6.57;;
50126;SDS011;36024;47.974;16.398;2023-10-13T02:27:32;10.00;;;6.13;;
50126;SDS011;36024;47.974;16.398;2023-10-13T02:30:10;6.80;;;6.17;;
50126;SDS011;36024;47.974;16.398;2023-10-13T02:32:42;7.60;;;6.90;;
50126;SDS011;36024;47.974;16.398;2023-10-13T02:35:13;7.10;;;6.40;;
50126;SDS011;36024;47.974;16.398;2023-10-13T02:37:48;7.77;;;6.23;;
50126;SDS011;36024;47.974;16.398;2023-10-13T02:40:24;6.93;;;6.23;;
50126;SDS011;36024;47.974;16.398;2023-10-13T02:42:59;7.87;;;6.40;;
50126;SDS011;36024;47.974;16.398;2023-10-13T02:48:28;6.27;;;5.63;;
50126;SDS011;36024;47.974;16.398;2023-10-13T02:51:11;6.33;;;5.73;;
50126;SDS011;36024;47.974;16.398;2023-10-13T02:53:46;8.13;;;6.07;;
50126;SDS011;36024;47.974;16.398;2023-10-13T02:56:17;6.47;;;5.87;;
50126;SDS011;36024;47.974;16.398;2023-10-13T02:58:51;8.57;;;5.90;;
50126;SDS011;36024;47.974;16.398;2023-10-13T03:01:34;8.03;;;5.70;;
50126;SDS011;36024;47.974;16.398;2023-10-13T03:04:05;7.10;;;6.23;;
50126;SDS011;36024;47.974;16.398;2023-10-13T03:06:42;9.57;;;5.80;;
50126;SDS011;36024;47.974;16.398;2023-10-13T03:09:10;6.93;;;5.93;;
50126;SDS011;36024;47.974;16.398;2023-10-13T03:11:51;9.20;;;6.20;;
50126;SDS011;36024;47.974;16.398;2023-10-13T03:14:23;9.70;;;6.27;;
50126;SDS011;36024;47.974;16.398;2023-10-13T03:17:14;6.77;;;5.97;;
50126;SDS011;36024;47.974;16.398;2023-10-13T03:19:44;6.87;;;6.10;;
50126;SDS011;36024;47.974;16.398;2023-10-13T03:22:26;8.07;;;6.67;;
50126;SDS011;36024;47.974;16.398;2023-10-13T03:25:02;8.13;;;6.10;;
50126;SDS011;36024;47.974;16.398;2023-10-13T03:27:33;7.10;;;6.20;;
50126;SDS011;36024;47.974;16.398;2023-10-13T03:30:27;7.27;;;6.30;;
50126;SDS011;36024;47.974;16.398;2023-10-13T03:33:10;7.27;;;6.27;;
50126;SDS011;36024;47.974;16.398;2023-10-13T03:35:43;7.73;;;6.80;;
50126;SDS011;36024;47.974;16.398;2023-10-13T03:38:21;11.30;;;6.83;;
50126;SDS011;36024;47.974;16.398;2023-10-13T03:40:56;7.67;;;6.57;;
50126;SDS011;36024;47.974;16.398;2023-10-13T03:43:50;8.63;;;6.50;;
50126;SDS011;36024;47.974;16.398;2023-10-13T03:46:36;8.03;;;6.50;;
50126;SDS011;36024;47.974;16.398;2023-10-13T03:49:09;8.87;;;6.70;;
50126;SDS011;36024;47.974;16.398;2023-10-13T03:51:40;8.03;;;6.90;;
50126;SDS011;36024;47.974;16.398;2023-10-13T03:54:12;8.43;;;6.77;;
50126;SDS011;36024;47.974;16.398;2023-10-13T03:56:44;10.77;;;7.30;;
50126;SDS011;36024;47.974;16.398;2023-10-13T03:59:13;10.53;;;7.10;;
50126;SDS011;36024;47.974;16.398;2023-10-13T04:01:41;10.07;;;7.47;;
50126;SDS011;36024;47.974;16.398;2023-10-13T04:04:15;10.07;;;7.73;;
50126;SDS011;36024;47.974;16.398;2023-10-13T04:06:59;10.30;;;7.63;;
50126;SDS011;36024;47.974;16.398;2023-10-13T04:09:37;8.73;;;7.43;;
50126;SDS011;36024;47.974;16.398;2023-10-13T04:12:22;7.60;;;6.83;;
50126;SDS011;36024;47.974;16.398;2023-10-13T04:15:10;8.80;;;7.90;;
50126;SDS011;36024;47.974;16.398;2023-10-13T04:17:48;9.60;;;7.13;;
50126;SDS011;36024;47.974;16.398;2023-10-13T04:20:18;10.13;;;7.50;;
50126;SDS011;36024;47.974;16.398;2023-10-13T04:23:02;8.97;;;7.27;;
50126;SDS011;36024;47.974;16.398;2023-10-13T04:25:33;9.83;;;7.47;;
50126;SDS011;36024;47.974;16.398;2023-10-13T04:28:13;9.57;;;7.40;;
50126;SDS011;36024;47.974;16.398;2023-10-13T04:30:50;7.13;;;6.43;;
50126;SDS011;36024;47.974;16.398;2023-10-13T04:33:29;7.70;;;6.93;;
50126;SDS011;36024;47.974;16.398;2023-10-13T04:36:18;11.67;;;7.17;;
50126;SDS011;36024;47.974;16.398;2023-10-13T04:39:03;8.30;;;7.23;;
50126;SDS011;36024;47.974;16.398;2023-10-13T04:44:13;8.17;;;6.73;;
50126;SDS011;36024;47.974;16.398;2023-10-13T04:47:05;8.47;;;6.10;;
50126;SDS011;36024;47.974;16.398;2023-10-13T04:49:40;10.33;;;6.63;;
50126;SDS011;36024;47.974;16.398;2023-10-13T04:52:13;8.13;;;6.73;;
50126;SDS011;36024;47.974;16.398;2023-10-13T04:55:02;8.50;;;6.53;;
50126;SDS011;36024;47.974;16.398;2023-10-13T04:57:44;7.80;;;6.40;;
50126;SDS011;36024;47.974;16.398;2023-10-13T05:00:13;7.30;;;6.37;;
50126;SDS011;36024;47.974;16.398;2023-10-13T05:02:44;7.20;;;6.03;;
50126;SDS011;36024;47.974;16.398;2023-10-13T05:05:29;11.00;;;6.70;;
50126;SDS011;36024;47.974;16.398;2023-10-13T05:08:21;9.97;;;6.40;;
50126;SDS011;36024;47.974;16.398;2023-10-13T05:11:11;10.03;;;6.60;;
50126;SDS011;36024;47.974;16.398;2023-10-13T05:14:23;8.23;;;6.90;;
50126;SDS011;36024;47.974;16.398;2023-10-13T05:17:09;11.10;;;7.03;;
50126;SDS011;36024;47.974;16.398;2023-10-13T05:19:57;8.43;;;6.53;;
50126;SDS011;36024;47.974;16.398;2023-10-13T05:22:44;7.37;;;6.67;;
50126;SDS011;36024;47.974;16.398;2023-10-13T05:25:35;7.20;;;6.47;;
50126;SDS011;36024;47.974;16.398;2023-10-13T05:28:21;8.23;;;6.27;;
50126;SDS011;36024;47.974;16.398;2023-10-13T05:31:08;7.40;;;6.37;;
50126;SDS011;36024;47.974;16.398;2023-10-13T05:33:56;7.43;;;6.43;;
50126;SDS011;36024;47.974;16.398;2023-10-13T05:36:43;8.43;;;6.60;;
50126;SDS011;36024;47.974;16.398;2023-10-13T05:39:32;11.17;;;7.10;;
50126;SDS011;36024;47.974;16.398;2023-10-13T05:42:18;8.20;;;6.23;;
50126;SDS011;36024;47.974;16.398;2023-10-13T05:45:06;8.60;;;6.07;;
50126;SDS011;36024;47.974;16.398;2023-10-13T05:47:55;8.57;;;5.70;;
50126;SDS011;36024;47.974;16.398;2023-10-13T05:50:39;9.30;;;6.27;;
50126;SDS011;36024;47.974;16.398;2023-10-13T05:53:29;8.87;;;6.07;;
50126;SDS011;36024;47.974;16.398;2023-10-13T05:56:16;7.63;;;5.53;;
50126;SDS011;36024;47.974;16.398;2023-10-13T05:59:02;8.53;;;5.83;;
50126;SDS011;36024;47.974;16.398;2023-10-13T06:01:51;7.63;;;5.93;;
50126;SDS011;36024;47.974;16.398;2023-10-13T06:04:42;8.83;;;5.90;;
50126;SDS011;36024;47.974;16.398;2023-10-13T06:07:28;7.43;;;5.67;;
50126;SDS011;36024;47.974;16.398;2023-10-13T06:10:15;6.70;;;5.33;;
50126;SDS011;36024;47.974;16.398;2023-10-13T06:13:01;8.33;;;5.93;;
50126;SDS011;36024;47.974;16.398;2023-10-13T06:15:47;9.10;;;5.70;;
50126;SDS011;36024;47.974;16.398;2023-10-13T06:18:33;7.60;;;6.13;;
50126;SDS011;36024;47.974;16.398;2023-10-13T06:21:26;9.37;;;5.77;;
50126;SDS011;36024;47.974;16.398;2023-10-13T06:24:11;8.53;;;5.90;;
50126;SDS011;36024;47.974;16.398;2023-10-13T06:26:57;8.37;;;5.70;;
50126;SDS011;36024;47.974;16.398;2023-10-13T06:29:42;9.20;;;5.90;;
50126;SDS011;36024;47.974;16.398;2023-10-13T06:32:13;10.63;;;5.80;;
50126;SDS011;36024;47.974;16.398;2023-10-13T06:34:43;8.07;;;5.83;;
50126;SDS011;36024;47.974;16.398;2023-10-13T06:37:17;6.97;;;5.53;;
50126;SDS011;36024;47.974;16.398;2023-10-13T06:40:00;8.70;;;5.97;;
50126;SDS011;36024;47.974;16.398;2023-10-13T06:42:49;8.50;;;5.67;;
50126;SDS011;36024;47.974;16.398;2023-10-13T06:45:16;7.90;;;5.57;;
50126;SDS011;36024;47.974;16.398;2023-10-13T06:47:45;8.77;;;5.77;;
50126;SDS011;36024;47.974;16.398;2023-10-13T06:50:15;11.57;;;5.90;;
50126;SDS011;36024;47.974;16.398;2023-10-13T06:52:43;6.93;;;5.60;;
50126;SDS011;36024;47.974;16.398;2023-10-13T06:55:10;9.67;;;7.17;;
50126;SDS011;36024;47.974;16.398;2023-10-13T06:57:44;9.80;;;6.70;;
50126;SDS011;36024;47.974;16.398;2023-10-13T07:00:16;11.67;;;6.93;;
50126;SDS011;36024;47.974;16.398;2023-10-13T07:03:01;9.23;;;5.60;;
50126;SDS011;36024;47.974;16.398;2023-10-13T07:05:54;6.77;;;5.20;;
50126;SDS011;36024;47.974;16.398;2023-10-13T07:08:27;7.70;;;5.23;;
50126;SDS011;36024;47.974;16.398;2023-10-13T07:10:57;8.63;;;5.27;;
50126;SDS011;36024;47.974;16.398;2023-10-13T07:13:32;12.73;;;5.23;;
50126;SDS011;36024;47.974;16.398;2023-10-13T07:16:05;6.63;;;4.87;;
50126;SDS011;36024;47.974;16.398;2023-10-13T07:18:57;8.57;;;5.70;;
50126;SDS011;36024;47.974;16.398;2023-10-13T07:21:32;9.77;;;4.83;;
50126;SDS011;36024;47.974;16.398;2023-10-13T07:24:02;6.97;;;5.00;;
50126;SDS011;36024;47.974;16.398;2023-10-13T07:26:40;8.07;;;5.10;;
50126;SDS011;36024;47.974;16.398;2023-10-13T07:29:16;8.43;;;5.47;;
50126;SDS011;36024;47.974;16.398;2023-10-13T07:31:49;9.10;;;5.40;;
50126;SDS011;36024;47.974;16.398;2023-10-13T07:34:20;8.57;;;5.10;;
50126;SDS011;36024;47.974;16.398;2023-10-13T07:37:02;11.97;;;5.27;;
50126;SDS011;36024;47.974;16.398;2023-10-13T07:39:35;12.20;;;5.10;;
50126;SDS011;36024;47.974;16.398;2023-10-13T07:42:05;8.93;;;5.00;;
50126;SDS011;36024;47.974;16.398;2023-10-13T07:44:34;9.17;;;4.70;;
50126;SDS011;36024;47.974;16.398;2023-10-13T07:47:03;10.93;;;4.70;;
50126;SDS011;36024;47.974;16.398;2023-10-13T07:49:36;13.40;;;5.00;;
50126;SDS011;36024;47.974;16.398;2023-10-13T07:52:06;15.53;;;5.33;;
50126;SDS011;36024;47.974;16.398;2023-10-13T07:54:47;12.47;;;5.03;;
50126;SDS011;36024;47.974;16.398;2023-10-13T07:57:39;8.23;;;4.57;;
50126;SDS011;36024;47.974;16.398;2023-10-13T08:00:22;11.50;;;4.77;;
50126;SDS011;36024;47.974;16.398;2023-10-13T08:03:14;11.90;;;4.43;;
50126;SDS011;36024;47.974;16.398;2023-10-13T08:05:44;10.83;;;4.80;;
50126;SDS011;36024;47.974;16.398;2023-10-13T08:08:32;7.33;;;4.57;;
50126;SDS011;36024;47.974;16.398;2023-10-13T08:11:15;8.83;;;4.50;;
50126;SDS011;36024;47.974;16.398;2023-10-13T08:14:00;12.47;;;5.00;;
50126;SDS011;36024;47.974;16.398;2023-10-13T08:16:56;10.60;;;4.72;;
50126;SDS011;36024;47.974;16.398;2023-10-13T08:19:29;11.50;;;4.37;;
50126;SDS011;36024;47.974;16.398;2023-10-13T08:22:19;8.33;;;4.57;;
50126;SDS011;36024;47.974;16.398;2023-10-13T08:24:52;7.30;;;4.27;;
50126;SDS011;36024;47.974;16.398;2023-10-13T08:27:25;8.88;;;4.63;;
50126;SDS011;36024;47.974;16.398;2023-10-13T08:30:23;9.52;;;4.18;;
50126;SDS011;36024;47.974;16.398;2023-10-13T08:33:09;7.63;;;4.53;;
50126;SDS011;36024;47.974;16.398;2023-10-13T08:35:45;7.82;;;4.43;;
50126;SDS011;36024;47.974;16.398;2023-10-13T08:38:22;7.40;;;4.10;;
50126;SDS011;36024;47.974;16.398;2023-10-13T08:40:58;9.65;;;3.95;;
50126;SDS011;36024;47.974;16.398;2023-10-13T08:43:46;12.88;;;4.65;;
50126;SDS011;36024;47.974;16.398;2023-10-13T08:46:19;9.10;;;4.10;;
50126;SDS011;36024;47.974;16.398;2023-10-13T08:49:00;8.25;;;3.92;;
50126;SDS011;36024;47.974;16.398;2023-10-13T08:51:37;7.57;;;4.22;;
50126;SDS011;36024;47.974;16.398;2023-10-13T08:54:14;7.07;;;4.45;;
50126;SDS011;36024;47.974;16.398;2023-10-13T08:57:01;10.05;;;4.13;;
50126;SDS011;36024;47.974;16.398;2023-10-13T09:00:00;6.78;;;4.03;;
50126;SDS011;36024;47.974;16.398;2023-10-13T09:02:47;7.05;;;4.20;;
50126;SDS011;36024;47.974;16.398;2023-10-13T09:05:28;9.40;;;3.67;;
50126;SDS011;36024;47.974;16.398;2023-10-13T09:08:28;8.55;;;4.10;;
50126;SDS011;36024;47.974;16.398;2023-10-13T09:11:03;7.30;;;3.67;;
50126;SDS011;36024;47.974;16.398;2023-10-13T09:13:40;8.02;;;3.92;;
50126;SDS011;36024;47.974;16.398;2023-10-13T09:16:15;8.07;;;4.22;;
50126;SDS011;36024;47.974;16.398;2023-10-13T09:18:51;7.65;;;4.05;;
50126;SDS011;36024;47.974;16.398;2023-10-13T09:21:23;7.72;;;4.20;;
50126;SDS011;36024;47.974;16.398;2023-10-13T09:24:14;7.63;;;4.43;;
50126;SDS011;36024;47.974;16.398;2023-10-13T09:26:50;10.02;;;4.00;;
50126;SDS011;36024;47.974;16.398;2023-10-13T09:29:25;8.27;;;4.05;;
50126;SDS011;36024;47.974;16.398;2023-10-13T09:31:59;9.13;;;3.95;;
50126;SDS011;36024;47.974;16.398;2023-10-13T09:34:30;7.40;;;4.30;;
50126;SDS011;36024;47.974;16.398;2023-10-13T09:37:01;8.30;;;4.57;;
50126;SDS011;36024;47.974;16.398;2023-10-13T09:39:39;7.00;;;4.32;;
50126;SDS011;36024;47.974;16.398;2023-10-13T09:42:22;6.47;;;4.30;;
50126;SDS011;36024;47.974;16.398;2023-10-13T09:44:53;6.38;;;4.22;;
50126;SDS011;36024;47.974;16.398;2023-10-13T09:47:26;6.68;;;3.42;;
50126;SDS011;36024;47.974;16.398;2023-10-13T09:49:59;10.35;;;4.30;;
50126;SDS011;36024;47.974;16.398;2023-10-13T09:52:44;8.35;;;4.35;;
50126;SDS011;36024;47.974;16.398;2023-10-13T09:55:15;6.93;;;3.88;;
50126;SDS011;36024;47.974;16.398;2023-10-13T09:57:54;7.70;;;4.40;;
50126;SDS011;36024;47.974;16.398;2023-10-13T10:00:27;6.88;;;4.00;;
50126;SDS011;36024;47.974;16.398;2023-10-13T10:03:13;4.82;;;3.65;;
50126;SDS011;36024;47.974;16.398;2023-10-13T10:06:01;5.97;;;3.65;;
50126;SDS011;36024;47.974;16.398;2023-10-13T10:08:33;4.07;;;3.33;;
50126;SDS011;36024;47.974;16.398;2023-10-13T10:19:56;8.40;;;3.58;;
50126;SDS011;36024;47.974;16.398;2023-10-13T10:25:05;5.88;;;3.65;;
50126;SDS011;36024;47.974;16.398;2023-10-13T10:27:59;5.82;;;3.83;;
50126;SDS011;36024;47.974;16.398;2023-10-13T10:30:28;6.13;;;3.35;;
50126;SDS011;36024;47.974;16.398;2023-10-13T10:32:57;4.85;;;3.47;;
50126;SDS011;36024;47.974;16.398;2023-10-13T10:35:28;7.68;;;3.40;;
50126;SDS011;36024;47.974;16.398;2023-10-13T10:38:18;5.70;;;3.50;;
50126;SDS011;36024;47.974;16.398;2023-10-13T10:43:28;7.22;;;3.10;;
50126;SDS011;36024;47.974;16.398;2023-10-13T10:46:18;5.10;;;2.90;;
50126;SDS011;36024;47.974;16.398;2023-10-13T10:48:52;5.05;;;3.08;;
50126;SDS011;36024;47.974;16.398;2023-10-13T10:51:28;6.85;;;3.38;;
50126;SDS011;36024;47.974;16.398;2023-10-13T10:53:59;4.50;;;2.80;;
50126;SDS011;36024;47.974;16.398;2023-10-13T10:56:39;6.85;;;3.60;;
50126;SDS011;36024;47.974;16.398;2023-10-13T10:59:07;5.18;;;3.25;;
50126;SDS011;36024;47.974;16.398;2023-10-13T11:01:48;5.53;;;3.65;;
50126;SDS011;36024;47.974;16.398;2023-10-13T11:04:18;7.63;;;3.30;;
50126;SDS011;36024;47.974;16.398;2023-10-13T11:06:52;4.85;;;3.08;;
50126;SDS011;36024;47.974;16.398;2023-10-13T11:11:54;3.53;;;3.00;;
50126;SDS011;36024;47.974;16.398;2023-10-13T11:14:25;6.38;;;4.13;;
50126;SDS011;36024;47.974;16.398;2023-10-13T11:16:56;5.53;;;3.53;;
50126;SDS011;36024;47.974;16.398;2023-10-13T11:19:41;6.28;;;3.47;;
50126;SDS011;36024;47.974;16.398;2023-10-13T11:22:17;7.75;;;3.80;;
50126;SDS011;36024;47.974;16.398;2023-10-13T11:25:04;4.90;;;3.28;;
50126;SDS011;36024;47.974;16.398;2023-10-13T11:27:44;6.97;;;3.67;;
50126;SDS011;36024;47.974;16.398;2023-10-13T11:30:20;4.47;;;3.38;;
50126;SDS011;36024;47.974;16.398;2023-10-13T11:33:01;8.00;;;4.00;;
50126;SDS011;36024;47.974;16.398;2023-10-13T11:35:39;6.07;;;3.83;;
50126;SDS011;36024;47.974;16.398;2023-10-13T11:41:00;6.88;;;3.72;;
50126;SDS011;36024;47.974;16.398;2023-10-13T11:43:36;6.57;;;3.72;;
50126;SDS011;36024;47.974;16.398;2023-10-13T11:46:23;4.97;;;3.42;;
50126;SDS011;36024;47.974;16.398;2023-10-13T11:49:08;5.53;;;3.55;;
50126;SDS011;36024;47.974;16.398;2023-10-13T11:51:46;5.88;;;3.45;;
50126;SDS011;36024;47.974;16.398;2023-10-13T11:54:18;5.97;;;3.53;;
50126;SDS011;36024;47.974;16.398;2023-10-13T11:56:47;9.23;;;3.70;;
50126;SDS011;36024;47.974;16.398;2023-10-13T11:59:15;4.85;;;3.40;;
50126;SDS011;36024;47.974;16.398;2023-10-13T12:01:51;6.88;;;3.80;;
50126;SDS011;36024;47.974;16.398;2023-10-13T12:04:38;7.13;;;3.67;;
50126;SDS011;36024;47.974;16.398;2023-10-13T12:07:22;6.85;;;3.65;;
50126;SDS011;36024;47.974;16.398;2023-10-13T12:09:53;7.07;;;3.53;;
50126;SDS011;36024;47.974;16.398;2023-10-13T12:12:30;5.78;;;3.30;;
50126;SDS011;36024;47.974;16.398;2023-10-13T12:15:09;4.60;;;3.67;;
50126;SDS011;36024;47.974;16.398;2023-10-13T12:17:37;4.50;;;3.80;;
50126;SDS011;36024;47.974;16.398;2023-10-13T12:20:15;7.22;;;3.67;;
50126;SDS011;36024;47.974;16.398;2023-10-13T12:23:02;6.93;;;3.28;;
50126;SDS011;36024;47.974;16.398;2023-10-13T12:25:43;8.05;;;3.80;;
50126;SDS011;36024;47.974;16.398;2023-10-13T12:28:26;6.50;;;3.63;;
50126;SDS011;36024;47.974;16.398;2023-10-13T12:31:02;7.90;;;3.58;;
50126;SDS011;36024;47.974;16.398;2023-10-13T12:33:37;5.00;;;3.47;;
50126;SDS011;36024;47.974;16.398;2023-10-13T12:36:07;6.47;;;3.53;;
50126;SDS011;36024;47.974;16.398;2023-10-13T12:38:41;8.10;;;3.70;;
50126;SDS011;36024;47.974;16.398;2023-10-13T12:41:15;9.60;;;4.18;;
50126;SDS011;36024;47.974;16.398;2023-10-13T12:44:06;6.40;;;4.20;;
50126;SDS011;36024;47.974;16.398;2023-10-13T12:46:52;6.38;;;3.85;;
50126;SDS011;36024;47.974;16.398;2023-10-13T12:49:39;9.10;;;3.67;;
50126;SDS011;36024;47.974;16.398;2023-10-13T12:52:11;7.38;;;3.75;;
50126;SDS011;36024;47.974;16.398;2023-10-13T12:54:49;7.60;;;3.78;;
50126;SDS011;36024;47.974;16.398;2023-10-13T12:57:41;7.22;;;4.07;;
50126;SDS011;36024;47.974;16.398;2023-10-13T13:00:15;7.47;;;3.05;;
50126;SDS011;36024;47.974;16.398;2023-10-13T13:02:54;7.15;;;4.05;;
50126;SDS011;36024;47.974;16.398;2023-10-13T13:05:26;5.88;;;3.72;;
50126;SDS011;36024;47.974;16.398;2023-10-13T13:07:57;8.40;;;3.80;;
50126;SDS011;36024;47.974;16.398;2023-10-13T13:10:25;9.10;;;4.40;;
50126;SDS011;36024;47.974;16.398;2023-10-13T13:13:03;6.82;;;4.22;;
50126;SDS011;36024;47.974;16.398;2023-10-13T13:15:31;7.15;;;3.70;;
50126;SDS011;36024;47.974;16.398;2023-10-13T13:17:59;6.45;;;3.90;;
50126;SDS011;36024;47.974;16.398;2023-10-13T13:20:42;6.35;;;3.70;;
50126;SDS011;36024;47.974;16.398;2023-10-13T13:23:23;6.63;;;3.83;;
50126;SDS011;36024;47.974;16.398;2023-10-13T13:25:54;7.97;;;4.20;;
50126;SDS011;36024;47.974;16.398;2023-10-13T13:28:26;6.65;;;3.90;;
50126;SDS011;36024;47.974;16.398;2023-10-13T13:31:09;8.00;;;3.80;;
50126;SDS011;36024;47.974;16.398;2023-10-13T13:33:45;6.30;;;3.40;;
50126;SDS011;36024;47.974;16.398;2023-10-13T13:36:15;5.50;;;3.80;;
50126;SDS011;36024;47.974;16.398;2023-10-13T13:38:43;7.35;;;3.90;;
50126;SDS011;36024;47.974;16.398;2023-10-13T13:41:33;4.90;;;3.70;;
50126;SDS011;36024;47.974;16.398;2023-10-13T13:44:04;5.80;;;3.58;;
50126;SDS011;36024;47.974;16.398;2023-10-13T13:46:41;8.02;;;3.55;;
50126;SDS011;36024;47.974;16.398;2023-10-13T13:49:15;9.18;;;3.85;;
50126;SDS011;36024;47.974;16.398;2023-10-13T13:51:45;6.55;;;3.80;;
50126;SDS011;36024;47.974;16.398;2023-10-13T13:54:19;7.28;;;3.72;;
50126;SDS011;36024;47.974;16.398;2023-10-13T13:56:47;4.95;;;3.28;;
50126;SDS011;36024;47.974;16.398;2023-10-13T13:59:18;8.35;;;3.47;;
50126;SDS011;36024;47.974;16.398;2023-10-13T14:01:46;7.32;;;3.70;;
50126;SDS011;36024;47.974;16.398;2023-10-13T14:04:14;8.98;;;3.67;;
50126;SDS011;36024;47.974;16.398;2023-10-13T14:06:44;6.63;;;3.70;;
50126;SDS011;36024;47.974;16.398;2023-10-13T14:09:11;8.00;;;3.63;;
50126;SDS011;36024;47.974;16.398;2023-10-13T14:12:02;7.13;;;3.70;;
50126;SDS011;36024;47.974;16.398;2023-10-13T14:14:48;8.18;;;4.10;;
50126;SDS011;36024;47.974;16.398;2023-10-13T14:17:27;8.50;;;3.70;;
50126;SDS011;36024;47.974;16.398;2023-10-13T14:19:57;4.90;;;3.53;;
50126;SDS011;36024;47.974;16.398;2023-10-13T14:22:28;6.28;;;3.85;;
50126;SDS011;36024;47.974;16.398;2023-10-13T14:25:07;7.85;;;3.30;;
50126;SDS011;36024;47.974;16.398;2023-10-13T14:27:43;6.45;;;3.42;;
50126;SDS011;36024;47.974;16.398;2023-10-13T14:30:14;8.60;;;3.45;;
50126;SDS011;36024;47.974;16.398;2023-10-13T14:32:55;5.57;;;3.50;;
50126;SDS011;36024;47.974;16.398;2023-10-13T14:35:25;11.63;;;3.90;;
50126;SDS011;36024;47.974;16.398;2023-10-13T14:37:54;8.07;;;4.00;;
50126;SDS011;36024;47.974;16.398;2023-10-13T14:40:23;5.38;;;3.42;;
50126;SDS011;36024;47.974;16.398;2023-10-13T14:42:55;8.63;;;3.60;;
50126;SDS011;36024;47.974;16.398;2023-10-13T14:45:24;5.97;;;3.63;;
50126;SDS011;36024;47.974;16.398;2023-10-13T14:47:52;6.07;;;3.58;;
50126;SDS011;36024;47.974;16.398;2023-10-13T14:50:22;4.93;;;3.55;;
50126;SDS011;36024;47.974;16.398;2023-10-13T14:52:53;7.75;;;3.75;;
50126;SDS011;36024;47.974;16.398;2023-10-13T14:55:24;7.07;;;3.45;;
50126;SDS011;36024;47.974;16.398;2023-10-13T14:58:05;7.03;;;3.60;;
50126;SDS011;36024;47.974;16.398;2023-10-13T15:00:35;5.80;;;3.83;;
50126;SDS011;36024;47.974;16.398;2023-10-13T15:03:04;8.73;;;3.72;;
50126;SDS011;36024;47.974;16.398;2023-10-13T15:05:41;8.98;;;3.67;;
50126;SDS011;36024;47.974;16.398;2023-10-13T15:08:15;7.28;;;3.67;;
50126;SDS011;36024;47.974;16.398;2023-10-13T15:10:46;9.65;;;3.92;;
50126;SDS011;36024;47.974;16.398;2023-10-13T15:13:14;10.00;;;4.40;;
50126;SDS011;36024;47.974;16.398;2023-10-13T15:15:44;7.68;;;4.50;;
50126;SDS011;36024;47.974;16.398;2023-10-13T15:18:13;9.52;;;4.43;;
50126;SDS011;36024;47.974;16.398;2023-10-13T15:20:43;10.45;;;4.85;;
50126;SDS011;36024;47.974;16.398;2023-10-13T15:23:20;8.68;;;4.07;;
50126;SDS011;36024;47.974;16.398;2023-10-13T15:25:50;8.52;;;4.10;;
50126;SDS011;36024;47.974;16.398;2023-10-13T15:28:19;6.93;;;4.00;;
50126;SDS011;36024;47.974;16.398;2023-10-13T15:30:48;8.50;;;3.63;;
50126;SDS011;36024;47.974;16.398;2023-10-13T15:33:33;8.02;;;3.53;;
50126;SDS011;36024;47.974;16.398;2023-10-13T15:36:02;6.32;;;3.60;;
50126;SDS011;36024;47.974;16.398;2023-10-13T15:38:30;8.13;;;4.18;;
50126;SDS011;36024;47.974;16.398;2023-10-13T15:40:59;5.97;;;3.65;;
50126;SDS011;36024;47.974;16.398;2023-10-13T15:43:33;6.05;;;3.80;;
50126;SDS011;36024;47.974;16.398;2023-10-13T15:46:02;9.10;;;4.60;;
50126;SDS011;36024;47.974;16.398;2023-10-13T15:48:55;8.45;;;3.78;;
50126;SDS011;36024;47.974;16.398;2023-10-13T15:51:41;9.65;;;4.13;;
50126;SDS011;36024;47.974;16.398;2023-10-13T15:54:10;8.48;;;4.10;;
50126;SDS011;36024;47.974;16.398;2023-10-13T15:56:48;9.30;;;3.90;;